Time;durP1;ratioP1;P1;durP2;ratioP2;P2;SDS_P1;SDS_P2;PMS_P1;PMS_P2;Temp;Humidity;BMP_temperature;BMP_pressure;BME280_temperature;BME280_humidity;BME280_pressure;Samples;Min_cycle;Max_cycle;Signal;HPM_P1;HPM_P2
2022/07/12 00:02:37;;;;;;;4.00;1.60;;;;;;;15.46;62.34;99292.26;235970;1201;139144;-59
2022/07/12 00:07:40;;;;;;;4.20;2.00;;;;;;;15.51;62.38;99293.67;235841;1200;138813;-61
2022/07/12 00:12:43;;;;;;;4.80;2.20;;;;;;;15.49;62.18;99288.65;236183;1200;139688;-61
2022/07/12 00:17:49;;;;;;;;;;;;;;;15.48;62.22;99292.86;235885;1200;138739;-61
2022/07/12 00:22:52;;;;;;;5.60;2.50;;;;;;;15.44;62.25;99295.48;235955;1200;125704;-60
2022/07/12 00:27:56;;;;;;;7.70;2.40;;;;;;;15.43;62.42;99292.70;235862;1200;139179;-60
2022/07/12 00:32:59;;;;;;;6.80;2.20;;;;;;;15.50;62.47;99297.00;234895;1200;139960;-61
2022/07/12 00:38:02;;;;;;;3.90;2.30;;;;;;;15.59;62.58;99293.91;235868;1200;139296;-59
2022/07/12 00:43:05;;;;;;;5.00;2.90;;;;;;;15.65;62.70;99287.90;235900;1201;139022;-61
2022/07/12 00:48:09;;;;;;;4.40;2.50;;;;;;;15.70;62.70;99292.44;235896;1200;139258;-60
2022/07/12 00:53:13;;;;;;;4.30;2.70;;;;;;;15.71;62.60;99295.55;236070;1200;138594;-58
2022/07/12 00:58:17;;;;;;;8.30;3.10;;;;;;;15.68;62.37;99298.45;235890;1201;139248;-59
2022/07/12 01:03:20;;;;;;;6.20;2.90;;;;;;;15.70;62.68;99306.48;235974;1201;138629;-62
2022/07/12 01:08:23;;;;;;;8.70;3.30;;;;;;;15.72;62.75;99301.04;235930;1200;140263;-62
2022/07/12 01:13:27;;;;;;;8.10;3.60;;;;;;;15.80;62.81;99306.98;235793;1199;139368;-61
2022/07/12 01:18:30;;;;;;;6.90;3.90;;;;;;;15.86;62.80;99306.02;235876;1200;138107;-59
2022/07/12 01:23:34;;;;;;;9.00;4.00;;;;;;;15.89;62.87;99301.62;235755;1199;139462;-60
2022/07/12 01:28:38;;;;;;;7.20;4.10;;;;;;;15.89;62.93;99303.40;236042;1200;138543;-58
2022/07/12 01:33:41;;;;;;;5.70;4.00;;;;;;;15.91;62.73;99297.18;235935;1201;141473;-60
2022/07/12 01:38:44;;;;;;;10.90;3.90;;;;;;;15.92;62.76;99291.70;235937;1200;138680;-59
2022/07/12 01:43:47;;;;;;;5.50;3.20;;;;;;;15.93;62.86;99276.40;235799;1200;140377;-58
2022/07/12 01:48:50;;;;;;;7.80;3.70;;;;;;;15.98;62.78;99278.02;235987;1200;140252;-59
2022/07/12 01:53:53;;;;;;;8.90;3.70;;;;;;;15.99;62.87;99286.65;235913;1199;138919;-60
2022/07/12 01:58:56;;;;;;;7.10;3.50;;;;;;;15.98;63.00;99281.52;235975;1199;138694;-59
2022/07/12 02:04:03;;;;;;;6.10;3.50;;;;;;;15.96;62.67;99286.55;235979;1200;139049;-59
2022/07/12 02:09:05;;;;;;;6.70;3.50;;;;;;;15.96;62.68;99287.30;235902;1200;138600;-60
2022/07/12 02:14:10;;;;;;;5.90;3.30;;;;;;;15.94;62.80;99289.77;235787;1200;139509;-58
2022/07/12 02:19:13;;;;;;;7.10;3.10;;;;;;;15.90;62.82;99286.14;235870;1200;139237;-56
2022/07/12 02:24:16;;;;;;;7.00;3.20;;;;;;;15.94;62.82;99284.41;235919;1201;138961;-57
2022/07/12 02:29:19;;;;;;;7.20;3.40;;;;;;;15.97;62.84;99285.19;236103;1200;138881;-56
2022/07/12 02:34:22;;;;;;;6.30;3.50;;;;;;;16.00;62.94;99287.84;236094;1199;139497;-58
2022/07/12 02:39:25;;;;;;;8.30;3.70;;;;;;;15.95;62.88;99291.84;236031;1200;138641;-57
2022/07/12 02:44:28;;;;;;;7.10;4.00;;;;;;;15.93;62.88;99290.55;235823;1200;138783;-56
2022/07/12 02:49:31;;;;;;;8.20;3.90;;;;;;;15.97;63.06;99293.67;235807;1200;139892;-56
2022/07/12 02:54:34;;;;;;;6.00;4.20;;;;;;;15.99;63.08;99302.27;236135;1199;139409;-57
2022/07/12 02:59:37;;;;;;;7.50;4.70;;;;;;;15.92;63.08;99298.17;235848;1200;138867;-58
2022/07/12 03:04:40;;;;;;;8.70;5.10;;;;;;;15.89;63.06;99299.49;235917;1200;139223;-60
2022/07/12 03:09:43;;;;;;;6.50;5.00;;;;;;;15.81;62.93;99300.59;235795;1200;139078;-59
2022/07/12 03:14:46;;;;;;;8.90;5.10;;;;;;;15.74;62.97;99302.84;235825;1200;139352;-57
2022/07/12 03:19:49;;;;;;;8.90;5.70;;;;;;;15.72;63.08;99308.72;235881;1200;139344;-62
2022/07/12 03:24:52;;;;;;;6.70;4.70;;;;;;;15.75;63.39;99309.46;235976;1200;139141;-63
2022/07/12 03:29:56;;;;;;;7.40;5.70;;;;;;;15.78;63.53;99313.40;235977;1199;138916;-61
2022/07/12 03:34:59;;;;;;;10.70;6.60;;;;;;;15.80;63.37;99318.27;235965;1200;138860;-63
2022/07/12 03:40:02;;;;;;;9.10;6.10;;;;;;;15.75;63.48;99315.45;236101;1200;139209;-61
2022/07/12 03:45:06;;;;;;;11.30;5.80;;;;;;;15.70;63.53;99320.34;235866;1200;139242;-62
2022/07/12 03:50:12;;;;;;;9.10;6.10;;;;;;;15.66;63.43;99315.57;235956;1200;139934;-62
2022/07/12 03:55:15;;;;;;;10.70;6.90;;;;;;;15.66;63.73;99314.15;235837;1201;141143;-57
2022/07/12 04:00:19;;;;;;;7.70;6.80;;;;;;;15.71;64.02;99313.93;235873;1201;138992;-58
2022/07/12 04:05:25;;;;;;;9.70;7.10;;;;;;;15.75;64.02;99304.50;235980;1200;138665;-59
2022/07/12 04:10:29;;;;;;;10.70;7.40;;;;;;;15.76;63.92;99307.48;235988;1200;138578;-60
2022/07/12 04:15:32;;;;;;;10.20;7.10;;;;;;;15.79;64.18;99304.91;235892;1200;139136;-59
2022/07/12 04:20:35;;;;;;;10.40;6.80;;;;;;;15.84;64.07;99303.75;235728;1200;139634;-59
2022/07/12 04:25:38;;;;;;;9.30;7.10;;;;;;;15.95;64.34;99304.02;235845;1199;140536;-59
2022/07/12 04:30:43;;;;;;;10.10;6.80;;;;;;;16.03;64.37;99301.34;235864;1200;138565;-60
2022/07/12 04:35:46;;;;;;;11.10;6.40;;;;;;;16.12;64.20;99296.36;236086;1200;138994;-60
2022/07/12 04:40:49;;;;;;;9.70;5.60;;;;;;;16.16;64.06;99291.96;236090;1199;140679;-59
2022/07/12 04:45:52;;;;;;;10.20;5.30;;;;;;;16.21;64.20;99291.68;235888;1200;138908;-59
2022/07/12 04:50:55;;;;;;;8.70;6.10;;;;;;;16.31;63.98;99285.52;236116;1200;139568;-61
2022/07/12 04:55:58;;;;;;;5.60;3.90;;;;;;;16.45;63.90;99291.13;235876;1200;139108;-59
2022/07/12 05:01:01;;;;;;;7.10;3.40;;;;;;;16.56;64.11;99291.52;235939;1199;141078;-59
2022/07/12 05:06:05;;;;;;;5.40;3.40;;;;;;;16.68;63.99;99286.36;235935;1200;138854;-58
2022/07/12 05:11:08;;;;;;;6.40;3.70;;;;;;;16.68;63.66;99281.35;236030;1199;139242;-61
2022/07/12 05:16:11;;;;;;;8.00;3.00;;;;;;;16.69;63.74;99281.49;236124;1200;138563;-58
2022/07/12 05:21:14;;;;;;;8.50;3.10;;;;;;;16.71;63.67;99275.39;235871;1199;139406;-59
2022/07/12 05:26:17;;;;;;;4.60;2.60;;;;;;;16.76;63.58;99282.11;235741;1200;139092;-61
2022/07/12 05:31:20;;;;;;;4.60;2.90;;;;;;;16.75;63.60;99279.00;235982;1200;138866;-61
2022/07/12 05:36:23;;;;;;;5.00;2.10;;;;;;;16.81;63.94;99276.05;235793;1200;139382;-61
2022/07/12 05:41:26;;;;;;;4.80;2.40;;;;;;;16.85;63.64;99283.16;236086;1199;139183;-62
2022/07/12 05:46:29;;;;;;;5.90;2.20;;;;;;;16.86;63.56;99285.14;235888;1200;138555;-61
2022/07/12 05:56:54;;;;;;;5.40;2.10;;;;;;;16.97;63.55;99286.28;235842;1200;138994;-61
2022/07/12 06:01:57;;;;;;;5.20;2.00;;;;;;;17.09;63.52;99290.33;235968;1200;138527;-62
2022/07/12 06:07:00;;;;;;;5.20;2.00;;;;;;;17.15;63.32;99287.63;235871;1200;138524;-61
2022/07/12 06:12:03;;;;;;;4.40;1.90;;;;;;;17.18;63.18;99282.58;235821;1199;139402;-62
2022/07/12 06:17:07;;;;;;;3.90;1.70;;;;;;;17.22;63.42;99277.21;235915;1200;138691;-62
2022/07/12 06:22:10;;;;;;;4.50;1.70;;;;;;;17.31;63.19;99272.27;235871;1199;139580;-60
2022/07/12 06:27:13;;;;;;;37.80;26.90;;;;;;;17.47;62.92;99281.71;235834;1200;139358;-58
2022/07/12 06:32:17;;;;;;;5.00;2.60;;;;;;;17.59;63.17;99279.34;235842;1200;138865;-59
2022/07/12 06:37:20;;;;;;;4.60;1.90;;;;;;;17.76;63.01;99279.88;235837;1200;139398;-61
2022/07/12 06:42:23;;;;;;;4.90;2.20;;;;;;;17.81;62.40;99281.77;235829;1200;138751;-61
2022/07/12 06:47:28;;;;;;;;;;;;;;;17.79;62.40;99281.11;235841;1200;138903;-60
2022/07/12 06:52:32;;;;;;;19.10;13.90;;;;;;;17.74;62.14;99269.44;236067;1199;124947;-59
2022/07/12 06:57:36;;;;;;;90.50;70.20;;;;;;;17.85;62.57;99278.55;235886;1200;139008;-59
2022/07/12 07:02:40;;;;;;;6.30;3.20;;;;;;;17.90;62.21;99282.75;235973;1200;139981;-59
2022/07/12 07:07:43;;;;;;;8.90;3.70;;;;;;;17.94;62.09;99286.23;235902;1200;138837;-58
2022/07/12 07:12:46;;;;;;;45.20;35.60;;;;;;;17.95;62.07;99287.70;235915;1200;139143;-60
2022/07/12 07:17:50;;;;;;;5.90;4.10;;;;;;;18.02;62.11;99289.10;235976;1199;139186;-61
2022/07/12 07:22:53;;;;;;;7.20;4.10;;;;;;;18.04;61.57;99302.02;235937;1199;138585;-59
2022/07/12 07:27:56;;;;;;;4.70;3.40;;;;;;;17.95;61.30;99304.80;236013;1200;139103;-61
2022/07/12 07:32:59;;;;;;;5.20;3.40;;;;;;;17.86;61.45;99296.22;235809;1200;138622;-60
2022/07/12 07:38:03;;;;;;;66.90;49.30;;;;;;;17.89;61.51;99303.12;235497;1200;139178;-59
2022/07/12 07:43:06;;;;;;;7.40;3.40;;;;;;;17.94;61.56;99304.52;235861;1201;139839;-59
2022/07/12 07:48:09;;;;;;;6.80;3.00;;;;;;;17.97;61.40;99299.95;235807;1200;138900;-59
2022/07/12 07:53:26;;;;;;;7.70;2.80;;;;;;;17.98;61.28;99297.19;235951;1200;139100;-58
2022/07/12 07:58:29;;;;;;;3.00;2.30;;;;;;;17.96;61.43;99300.39;235906;1199;138894;-58
2022/07/12 08:03:32;;;;;;;8.60;2.20;;;;;;;18.01;61.44;99296.50;235896;1200;139158;-59
2022/07/12 08:08:35;;;;;;;6.40;2.20;;;;;;;18.10;61.35;99300.06;235843;1199;138680;-58
2022/07/12 08:13:59;;;;;;;4.70;2.00;;;;;;;18.28;61.36;99302.44;235816;1200;138985;-59
2022/07/12 08:19:04;;;;;;;230.00;167.50;;;;;;;18.41;61.14;99307.09;235447;1200;138486;-59
2022/07/12 08:24:07;;;;;;;11.80;6.30;;;;;;;18.55;60.95;99305.70;235893;1199;139312;-59
2022/07/12 08:29:10;;;;;;;4.60;2.00;;;;;;;18.64;60.54;99305.44;235977;1200;139357;-58
2022/07/12 08:34:13;;;;;;;132.90;100.50;;;;;;;18.67;60.39;99305.48;235878;1200;138992;-59
2022/07/12 08:39:16;;;;;;;10.20;4.90;;;;;;;18.72;60.21;99290.65;235822;1201;140001;-57
2022/07/12 08:44:19;;;;;;;3.80;1.80;;;;;;;18.82;60.00;99290.14;235648;1200;139157;-61
2022/07/12 08:49:22;;;;;;;3.80;1.70;;;;;;;18.87;59.79;99284.48;235925;1199;140343;-57
2022/07/12 08:54:24;;;;;;;7.90;1.60;;;;;;;19.01;59.60;99274.64;235669;1200;138741;-59
2022/07/12 08:59:27;;;;;;;29.70;18.30;;;;;;;19.17;59.62;99268.33;235876;1200;138190;-57
2022/07/12 09:04:30;;;;;;;3.70;2.30;;;;;;;19.28;59.10;99273.02;235887;1199;139979;-57
2022/07/12 09:09:37;;;;;;;2.70;1.60;;;;;;;19.21;58.39;99276.77;235837;1200;138777;-58
2022/07/12 09:14:40;;;;;;;5.80;2.70;;;;;;;19.32;58.59;99273.21;235853;1200;138931;-58
2022/07/12 09:19:55;;;;;;;6.30;2.80;;;;;;;19.52;58.48;99270.79;235904;1200;138946;-59
2022/07/12 09:25:09;;;;;;;5.20;1.40;;;;;;;19.58;57.76;99273.77;235854;1200;138914;-57
2022/07/12 09:30:12;;;;;;;2.80;1.20;;;;;;;19.70;57.56;99282.07;235819;1200;139290;-58
2022/07/12 09:40:36;;;;;;;10.90;3.80;;;;;;;19.16;56.95;99317.04;235802;1200;139136;-58
2022/07/12 09:45:40;;;;;;;3.40;1.10;;;;;;;18.81;57.38;99311.61;235869;1200;139415;-58
2022/07/12 09:50:47;;;;;;;1.60;0.80;;;;;;;18.49;57.92;99312.84;235794;1199;139042;-59
2022/07/12 09:55:51;;;;;;;47.60;39.20;;;;;;;18.42;58.61;99314.38;235824;1200;138874;-58
2022/07/12 10:01:01;;;;;;;65.00;48.00;;;;;;;18.60;59.28;99315.66;235819;1200;139829;-59
2022/07/12 10:06:06;;;;;;;3.10;1.80;;;;;;;18.74;59.50;99305.40;235791;1200;139099;-56
2022/07/12 10:11:13;;;;;;;3.30;1.70;;;;;;;19.07;59.39;99296.99;235961;1200;139097;-58
2022/07/12 10:16:36;;;;;;;4.50;1.30;;;;;;;19.34;59.23;99290.27;235895;1200;140137;-59
2022/07/12 10:21:39;;;;;;;4.90;1.00;;;;;;;19.51;58.98;99284.92;235785;1200;139319;-58
2022/07/12 10:26:42;;;;;;;2.60;1.00;;;;;;;19.68;58.68;99283.30;235777;1200;138810;-59
2022/07/12 10:31:46;;;;;;;3.00;1.00;;;;;;;19.81;58.48;99278.27;235874;1199;138820;-57
2022/07/12 10:36:55;;;;;;;4.70;1.40;;;;;;;19.75;58.04;99267.56;235744;1200;139302;-58
2022/07/12 10:42:18;;;;;;;3.80;1.20;;;;;;;19.75;58.35;99261.80;235830;1200;139425;-58
2022/07/12 10:47:25;;;;;;;4.40;1.10;;;;;;;19.97;58.40;99259.77;235873;1199;138851;-58
2022/07/12 10:52:28;;;;;;;3.60;1.40;;;;;;;20.28;58.20;99249.91;235913;1200;139058;-58
2022/07/12 10:57:45;;;;;;;3.90;1.10;;;;;;;20.42;57.56;99247.05;235616;1199;139060;-58
2022/07/12 11:02:49;;;;;;;4.50;1.30;;;;;;;20.45;57.08;99246.74;235747;1200;139411;-58
2022/07/12 11:07:53;;;;;;;2.80;1.00;;;;;;;20.56;56.91;99246.06;235804;1200;139681;-58
2022/07/12 11:12:56;;;;;;;3.00;1.10;;;;;;;20.71;56.67;99245.09;235801;1200;138910;-57
2022/07/12 11:18:00;;;;;;;5.00;0.90;;;;;;;21.07;56.43;99244.76;235751;1199;138469;-57
2022/07/12 11:23:03;;;;;;;2.40;1.10;;;;;;;21.24;55.72;99233.81;235885;1200;139960;-57
2022/07/12 11:28:10;;;;;;;5.00;1.00;;;;;;;21.41;55.42;99226.41;235823;1199;138845;-57
2022/07/12 11:33:13;;;;;;;2.90;1.10;;;;;;;21.61;55.03;99223.80;235938;1200;139669;-56
2022/07/12 11:38:24;;;;;;;5.00;2.60;;;;;;;21.75;54.51;99217.11;235813;1201;139142;-58
2022/07/12 11:43:35;;;;;;;4.20;1.30;;;;;;;21.88;53.85;99221.13;235793;1200;138750;-59
2022/07/12 11:48:41;;;;;;;3.70;1.60;;;;;;;22.16;53.60;99217.77;235596;1200;139702;-57
2022/07/12 11:53:52;;;;;;;2.10;0.90;;;;;;;22.31;53.01;99209.61;235766;1200;138923;-58
2022/07/12 11:58:57;;;;;;;5.20;1.10;;;;;;;22.18;52.61;99215.77;235898;1199;138828;-59
2022/07/12 12:04:00;;;;;;;2.60;0.90;;;;;;;22.20;52.87;99217.53;235990;1200;138390;-58
2022/07/12 12:09:06;;;;;;;5.70;2.70;;;;;;;22.36;52.74;99217.25;235791;1200;138651;-58
2022/07/12 12:14:09;;;;;;;2.10;0.90;;;;;;;22.62;52.66;99198.16;235797;1200;138907;-59
2022/07/12 12:19:12;;;;;;;2.70;1.10;;;;;;;22.81;52.22;99192.27;235853;1199;139667;-58
2022/07/12 12:24:15;;;;;;;2.30;1.00;;;;;;;22.78;51.85;99195.42;235842;1199;138432;-58
2022/07/12 12:29:39;;;;;;;6.20;1.40;;;;;;;22.78;51.64;99186.74;235860;1201;138809;-57
2022/07/12 12:34:42;;;;;;;3.00;0.90;;;;;;;22.91;51.71;99186.48;235931;1200;139197;-59
2022/07/12 12:39:49;;;;;;;3.80;0.80;;;;;;;22.93;51.25;99183.66;235865;1201;139281;-59
2022/07/12 12:44:52;;;;;;;6.40;4.40;;;;;;;23.06;51.12;99177.67;235742;1201;138899;-58
2022/07/12 12:49:57;;;;;;;2.10;1.00;;;;;;;23.11;50.90;99175.66;235947;1200;138614;-59
2022/07/12 12:55:00;;;;;;;4.40;1.00;;;;;;;22.97;50.66;99183.80;235763;1200;139213;-59
2022/07/12 13:00:03;;;;;;;3.10;0.90;;;;;;;22.75;50.57;99191.63;235823;1200;139072;-58
2022/07/12 13:05:06;;;;;;;4.50;1.10;;;;;;;22.30;50.36;99221.16;235846;1200;139943;-59
2022/07/12 13:10:09;;;;;;;4.50;1.10;;;;;;;21.48;50.40;99238.30;235808;1200;138599;-57
2022/07/12 13:15:13;;;;;;;2.20;0.80;;;;;;;20.50;51.53;99242.13;235749;1200;138943;-59
2022/07/12 13:20:16;;;;;;;5.90;0.80;;;;;;;19.81;52.62;99240.98;235793;1199;139132;-57
2022/07/12 13:25:19;;;;;;;5.40;0.70;;;;;;;19.44;53.78;99234.79;235785;1201;138500;-57
2022/07/12 13:30:22;;;;;;;2.70;0.90;;;;;;;19.27;54.76;99236.09;235868;1201;138732;-58
2022/07/12 13:35:29;;;;;;;3.30;0.90;;;;;;;19.23;55.80;99234.15;235757;1201;138387;-58
2022/07/12 13:40:32;;;;;;;3.80;0.90;;;;;;;19.36;56.63;99224.65;235859;1200;138551;-57
2022/07/12 13:45:36;;;;;;;2.50;0.70;;;;;;;19.52;56.95;99227.79;235890;1200;139756;-57
2022/07/12 13:50:39;;;;;;;3.60;1.00;;;;;;;19.70;57.14;99228.23;235776;1201;139178;-57
2022/07/12 13:55:45;;;;;;;3.70;1.10;;;;;;;20.06;57.76;99228.30;235739;1200;138756;-57
2022/07/12 14:00:48;;;;;;;3.10;2.40;;;;;;;20.49;58.03;99220.38;235965;1201;138989;-59
2022/07/12 14:05:52;;;;;;;8.60;4.90;;;;;;;20.93;57.53;99223.38;235764;1200;139978;-59
2022/07/12 14:10:54;;;;;;;9.80;3.50;;;;;;;21.16;57.18;99218.66;235822;1199;139829;-59
2022/07/12 14:15:59;;;;;;;6.10;1.60;;;;;;;21.45;56.74;99214.10;235662;1201;139239;-59
2022/07/12 14:21:06;;;;;;;4.10;1.20;;;;;;;21.50;56.00;99219.48;235832;1200;139098;-58
2022/07/12 14:26:09;;;;;;;3.20;1.00;;;;;;;21.37;55.69;99213.61;235704;1201;139270;-58
2022/07/12 14:31:12;;;;;;;2.60;0.90;;;;;;;21.21;55.23;99205.36;235979;1198;138771;-59
2022/07/12 14:36:15;;;;;;;1.70;0.80;;;;;;;21.01;54.32;99222.40;235719;1201;139332;-57
2022/07/12 14:41:18;;;;;;;2.50;0.90;;;;;;;20.81;53.64;99218.55;235863;1200;138710;-58
2022/07/12 14:46:21;;;;;;;4.30;0.70;;;;;;;20.60;52.99;99212.09;235829;1200;138870;-59
2022/07/12 14:51:25;;;;;;;0.90;0.50;;;;;;;20.57;52.74;99214.41;235735;1199;140356;-58
2022/07/12 14:56:27;;;;;;;3.90;0.80;;;;;;;20.55;52.78;99211.93;236025;1200;138691;-58
2022/07/12 15:01:32;;;;;;;173.80;127.00;;;;;;;20.60;52.87;99208.75;235848;1201;138889;-58
2022/07/12 15:06:35;;;;;;;11.90;7.10;;;;;;;20.67;53.05;99204.40;235728;1201;140136;-58
2022/07/12 15:11:38;;;;;;;6.00;1.70;;;;;;;20.74;53.07;99202.20;235795;1201;139878;-58
2022/07/12 15:16:41;;;;;;;2.90;1.00;;;;;;;20.82;52.73;99201.23;235842;1201;138585;-59
2022/07/12 15:21:44;;;;;;;4.80;0.90;;;;;;;20.84;52.59;99200.93;234948;1200;141236;-58
2022/07/12 15:26:47;;;;;;;4.60;0.80;;;;;;;20.78;52.42;99194.83;235785;1201;139405;-55
2022/07/12 15:31:50;;;;;;;1.30;0.70;;;;;;;20.69;52.36;99188.33;235922;1201;140862;-58
2022/07/12 15:36:53;;;;;;;1.70;0.90;;;;;;;20.63;52.56;99197.59;235780;1199;138437;-58
2022/07/12 15:41:56;;;;;;;1.90;1.00;;;;;;;20.56;52.48;99191.60;235836;1200;138698;-58
2022/07/12 15:46:59;;;;;;;3.70;1.00;;;;;;;20.49;52.51;99185.13;235869;1201;138706;-59
2022/07/12 15:57:24;;;;;;;6.50;1.00;;;;;;;20.43;52.55;99185.55;235644;1201;139334;-59
2022/07/12 16:02:27;;;;;;;3.10;1.30;;;;;;;20.43;52.62;99184.58;235803;1200;139369;-59
2022/07/12 16:07:30;;;;;;;3.40;1.00;;;;;;;20.44;52.74;99176.08;235809;1200;138712;-56
2022/07/12 16:12:34;;;;;;;2.30;0.90;;;;;;;20.43;52.57;99169.31;235772;1199;138720;-59
2022/07/12 16:17:37;;;;;;;4.90;1.00;;;;;;;20.45;52.87;99168.57;235716;1201;139330;-58
2022/07/12 16:22:40;;;;;;;7.20;1.30;;;;;;;20.48;53.31;99159.59;235850;1201;138656;-58
2022/07/12 16:27:43;;;;;;;1.90;1.20;;;;;;;20.54;53.62;99156.67;235829;1200;139108;-57
2022/07/12 16:32:46;;;;;;;211.70;154.00;;;;;;;20.57;53.74;99165.56;235777;1200;138819;-57
2022/07/12 16:37:49;;;;;;;10.50;5.90;;;;;;;20.65;54.18;99167.61;235765;1201;140059;-56
2022/07/12 16:42:53;;;;;;;3.90;1.80;;;;;;;20.68;54.23;99170.71;235710;1201;139867;-58
2022/07/12 16:47:57;;;;;;;2.50;1.20;;;;;;;20.69;54.26;99164.86;235887;1200;138195;-58
2022/07/12 16:53:02;;;;;;;2.40;1.20;;;;;;;20.68;54.48;99156.50;235474;1200;138561;-58
2022/07/12 16:58:05;;;;;;;4.00;1.50;;;;;;;20.66;54.60;99151.35;235768;1200;140350;-59
2022/07/12 17:03:08;;;;;;;3.50;1.20;;;;;;;20.64;54.74;99145.39;235742;1200;138795;-58
2022/07/12 17:08:11;;;;;;;4.50;1.40;;;;;;;20.65;54.66;99138.46;235735;1200;138900;-58
2022/07/12 17:13:14;;;;;;;3.80;1.10;;;;;;;20.64;54.83;99134.93;235744;1201;138587;-58
2022/07/12 17:18:18;;;;;;;4.70;1.10;;;;;;;20.66;54.63;99122.34;236131;1200;138577;-57
2022/07/12 17:23:22;;;;;;;4.10;1.20;;;;;;;20.64;54.36;99120.54;236502;1200;138468;-59
2022/07/12 17:28:25;;;;;;;4.20;1.90;;;;;;;20.61;54.42;99110.87;236485;1200;138227;-58
2022/07/12 17:33:28;;;;;;;8.00;5.50;;;;;;;20.60;54.44;99114.05;236277;1200;138854;-59
2022/07/12 17:38:31;;;;;;;4.50;1.70;;;;;;;20.60;54.65;99112.66;236580;1200;139680;-59
2022/07/12 17:43:33;;;;;;;3.70;2.20;;;;;;;20.55;54.83;99110.62;236608;1199;139058;-58
2022/07/12 17:48:39;;;;;;;3.70;1.70;;;;;;;20.53;55.09;99122.48;236223;1201;139309;-59
2022/07/12 17:53:42;;;;;;;2.90;1.30;;;;;;;20.50;55.16;99112.30;236395;1200;139398;-59
2022/07/12 17:58:45;;;;;;;4.80;1.60;;;;;;;20.47;55.07;99108.12;236727;1199;138934;-59
2022/07/12 18:03:51;;;;;;;4.30;1.70;;;;;;;20.45;55.21;99105.27;236485;1199;138617;-59
2022/07/12 18:08:55;;;;;;;3.80;1.70;;;;;;;20.45;55.22;99106.58;236562;1199;139119;-59
2022/07/12 18:19:19;;;;;;;3.60;1.40;;;;;;;20.35;55.36;99095.16;236578;1199;141814;-59
2022/07/12 18:24:22;;;;;;;3.60;1.80;;;;;;;20.34;55.30;99095.46;236607;1199;139182;-59
2022/07/12 18:29:25;;;;;;;4.50;1.70;;;;;;;20.32;55.28;99092.02;236732;1200;138287;-59
2022/07/12 18:34:28;;;;;;;9.70;5.00;;;;;;;20.25;55.39;99088.19;236661;1200;138744;-58
2022/07/12 18:39:32;;;;;;;4.90;2.10;;;;;;;20.26;55.39;99089.77;236598;1199;140730;-59
2022/07/12 18:44:36;;;;;;;3.80;1.70;;;;;;;20.19;55.48;99089.18;236530;1201;138808;-57
2022/07/12 18:49:40;;;;;;;7.90;2.20;;;;;;;20.13;55.64;99097.50;236434;1200;138954;-58
2022/07/12 18:54:43;;;;;;;4.80;1.90;;;;;;;20.10;55.84;99101.11;236542;1199;139349;-58
2022/07/12 18:59:46;;;;;;;5.20;2.40;;;;;;;20.05;56.00;99103.15;236621;1200;141168;-56
2022/07/12 19:04:50;;;;;;;4.10;2.20;;;;;;;20.06;56.10;99104.56;236654;1199;138767;-55
2022/07/12 19:11:31;;;;;;;4.60;2.10;;;;;;;20.11;56.11;99103.86;230235;1215;636063;-58
2022/07/12 19:16:34;;;;;;;39.40;32.00;;;;;;;20.07;56.05;99103.40;232397;1205;140130;-57
2022/07/12 19:21:37;;;;;;;7.50;4.40;;;;;;;20.05;56.32;99101.41;232755;1203;140853;-57
2022/07/12 19:26:40;;;;;;;5.70;3.60;;;;;;;20.09;56.32;99096.88;233501;1205;138640;-56
2022/07/12 19:31:43;;;;;;;8.40;2.40;;;;;;;20.11;56.21;99097.58;233325;1205;139657;-57
2022/07/12 19:36:46;;;;;;;8.00;2.70;;;;;;;20.06;56.19;99095.18;232977;1205;140516;-57
2022/07/12 19:41:49;;;;;;;4.70;2.30;;;;;;;20.02;56.15;99094.80;232225;1206;138080;-57
2022/07/12 19:46:52;;;;;;;5.80;3.00;;;;;;;19.98;56.19;99088.38;233514;1206;140033;-58
2022/07/12 19:51:55;;;;;;;15.10;10.10;;;;;;;19.95;56.25;99084.06;233371;1205;138866;-57
2022/07/12 19:56:58;;;;;;;6.90;3.10;;;;;;;19.96;56.28;99084.82;233485;1204;138808;-57
2022/07/12 20:02:02;;;;;;;6.90;3.10;;;;;;;19.94;56.22;99083.81;233473;1204;138832;-57
2022/07/12 20:07:05;;;;;;;6.10;2.60;;;;;;;19.91;56.15;99088.61;233365;1205;139444;-58
2022/07/12 20:12:08;;;;;;;6.50;2.80;;;;;;;19.87;56.17;99087.55;233391;1205;138331;-57
2022/07/12 20:17:11;;;;;;;8.60;3.60;;;;;;;19.85;56.13;99093.48;233470;1205;138473;-56
2022/07/12 20:22:15;;;;;;;5.50;2.80;;;;;;;19.85;56.17;99102.12;233479;1205;138625;-57
2022/07/12 20:27:18;;;;;;;8.30;3.10;;;;;;;19.87;56.18;99109.58;233370;1205;138806;-56
2022/07/12 20:32:21;;;;;;;12.10;6.40;;;;;;;19.89;56.16;99116.74;233365;1205;139020;-57
2022/07/12 20:37:25;;;;;;;12.00;3.10;;;;;;;19.90;56.18;99121.85;233402;1205;139290;-55
2022/07/12 20:42:28;;;;;;;7.60;3.20;;;;;;;19.87;56.13;99128.65;233261;1205;138760;-56
2022/07/12 20:47:31;;;;;;;4.80;2.60;;;;;;;19.84;56.13;99129.96;233516;1205;138260;-57
2022/07/12 20:52:34;;;;;;;10.00;3.20;;;;;;;19.83;56.24;99131.70;233421;1204;138716;-57
2022/07/12 20:57:37;;;;;;;5.90;2.40;;;;;;;19.80;56.13;99126.73;233325;1205;138481;-57
2022/07/12 21:02:40;;;;;;;6.00;2.10;;;;;;;19.80;56.04;99133.23;233316;1205;137961;-58
2022/07/12 21:07:43;;;;;;;5.40;1.90;;;;;;;19.78;55.75;99136.14;233368;1205;139235;-57
2022/07/12 21:12:47;;;;;;;6.90;2.10;;;;;;;19.75;55.54;99139.52;233197;1205;138394;-56
2022/07/12 21:17:49;;;;;;;4.00;2.20;;;;;;;19.70;55.42;99138.41;233458;1204;138746;-58
2022/07/12 21:22:52;;;;;;;7.90;2.10;;;;;;;19.69;55.50;99138.33;234162;1199;138532;-58
2022/07/12 21:27:57;;;;;;;7.80;2.40;;;;;;;19.68;55.31;99137.68;234218;1199;138770;-58
2022/07/12 21:33:01;;;;;;;6.50;1.80;;;;;;;19.64;55.13;99136.84;234126;1199;138659;-57
2022/07/12 21:38:04;;;;;;;7.70;1.80;;;;;;;19.63;55.06;99136.21;234173;1199;138693;-57
2022/07/12 21:43:06;;;;;;;3.00;1.60;;;;;;;19.62;54.97;99142.73;234026;1200;139261;-58
2022/07/12 21:48:10;;;;;;;2.40;1.50;;;;;;;19.63;54.83;99144.68;234151;1199;139063;-59
2022/07/12 21:53:13;;;;;;;3.60;1.60;;;;;;;19.63;54.56;99144.08;234280;1199;138794;-57
2022/07/12 21:58:16;;;;;;;3.30;1.60;;;;;;;19.61;54.27;99147.32;234231;1199;140017;-57
2022/07/12 22:03:19;;;;;;;4.20;1.20;;;;;;;19.58;53.93;99151.77;233999;1199;138987;-59
2022/07/12 22:08:23;;;;;;;2.60;1.40;;;;;;;19.56;53.72;99149.92;234098;1199;138362;-58
2022/07/12 22:13:26;;;;;;;3.80;1.30;;;;;;;19.57;53.58;99147.17;234135;1199;138732;-59
2022/07/12 22:18:29;;;;;;;3.90;1.30;;;;;;;19.58;53.47;99146.34;234104;1199;139760;-58
2022/07/12 22:23:32;;;;;;;4.20;1.50;;;;;;;19.57;53.28;99143.56;234302;1199;139009;-58
2022/07/12 22:28:35;;;;;;;2.90;1.40;;;;;;;19.55;53.10;99148.25;234233;1199;139046;-58
2022/07/12 22:33:38;;;;;;;2.10;1.40;;;;;;;19.51;52.95;99147.03;234149;1199;138668;-58
2022/07/12 22:38:41;;;;;;;3.40;1.20;;;;;;;19.49;52.84;99146.91;234121;1199;138982;-56
2022/07/12 22:43:47;;;;;;;3.80;1.50;;;;;;;19.45;52.78;99146.54;233563;1199;138952;-58
2022/07/12 22:48:50;;;;;;;3.80;1.30;;;;;;;19.42;52.74;99147.04;234060;1199;139425;-59
2022/07/12 22:53:53;;;;;;;5.10;1.40;;;;;;;19.39;52.55;99143.23;234146;1199;138759;-57
2022/07/12 22:58:55;;;;;;;2.60;1.30;;;;;;;19.34;52.48;99142.36;234104;1199;138506;-57
2022/07/12 23:03:59;;;;;;;2.70;1.20;;;;;;;19.33;52.44;99139.39;233526;1199;137978;-57
2022/07/12 23:09:03;;;;;;;1.70;1.30;;;;;;;19.33;52.41;99135.33;234067;1201;138736;-58
2022/07/12 23:14:06;;;;;;;6.50;1.40;;;;;;;19.35;52.35;99138.48;234106;1199;138768;-58
2022/07/12 23:19:09;;;;;;;2.90;1.30;;;;;;;19.35;52.14;99137.08;234050;1199;139010;-57
2022/07/12 23:24:12;;;;;;;3.80;1.30;;;;;;;19.32;52.12;99130.50;234073;1199;140632;-57
2022/07/12 23:29:15;;;;;;;2.80;1.30;;;;;;;19.31;52.06;99130.64;234276;1200;139016;-58
2022/07/12 23:34:18;;;;;;;2.40;1.50;;;;;;;19.27;51.89;99126.88;234060;1200;139529;-57
2022/07/12 23:39:22;;;;;;;3.70;1.30;;;;;;;19.23;51.92;99126.19;234177;1199;138779;-57